createdAt,value
2017-09-24T00:03:13.069Z,32
2017-09-24T00:13:13.086Z,31
2017-09-24T00:23:13.112Z,32
2017-09-24T00:33:13.035Z,38
2017-09-24T00:43:13.023Z,31
2017-09-24T00:53:13.089Z,36
2017-09-24T01:03:13.062Z,33
2017-09-24T01:13:13.019Z,33
2017-09-24T01:23:13.083Z,42
2017-09-24T01:33:12.982Z,40
2017-09-24T01:43:16.401Z,38
2017-09-24T01:53:13.065Z,35
2017-09-24T02:03:13.089Z,33
2017-09-24T02:13:13.222Z,32
2017-09-24T02:23:13.074Z,40
2017-09-24T02:33:12.995Z,37
2017-09-24T02:43:13.192Z,33
2017-09-24T02:53:15.088Z,37
2017-09-24T03:03:13.005Z,34
2017-09-24T03:13:13.106Z,36
2017-09-24T03:23:12.995Z,29
2017-09-24T03:33:14.076Z,40
2017-09-24T03:43:13.084Z,61
2017-09-24T03:53:13.021Z,62
2017-09-24T04:03:13.055Z,43
2017-09-24T04:13:13.077Z,43
2017-09-24T04:23:13.097Z,48
2017-09-24T04:33:13.041Z,46
2017-09-24T04:43:13.049Z,55
2017-09-24T04:53:13.090Z,55
2017-09-24T05:03:13.001Z,60
2017-09-24T05:23:42.293Z,71
2017-09-24T05:33:42.311Z,52
2017-09-24T05:43:42.364Z,59
2017-09-24T05:53:42.367Z,56
2017-09-24T06:03:42.860Z,58
2017-09-24T06:13:42.299Z,55
2017-09-24T06:23:42.417Z,54
2017-09-24T06:33:42.260Z,59
2017-09-24T06:43:42.336Z,62
2017-09-24T06:53:42.342Z,64
2017-09-24T07:03:43.350Z,65
2017-09-24T07:13:42.309Z,65
2017-09-24T07:23:42.388Z,64
2017-09-24T07:33:42.293Z,52
2017-09-24T07:43:43.312Z,47
2017-09-24T07:53:42.346Z,48
2017-09-24T08:03:42.282Z,47
2017-09-24T08:13:42.438Z,43
2017-09-24T08:23:44.395Z,43
2017-09-24T08:33:42.377Z,39
2017-09-24T08:43:42.514Z,42
2017-09-24T08:53:42.540Z,40
2017-09-24T09:03:42.401Z,42
2017-09-24T09:13:42.382Z,40
2017-09-24T09:23:42.350Z,41
2017-09-24T09:33:42.633Z,42
2017-09-24T09:43:42.446Z,38
2017-09-24T09:53:42.359Z,35
2017-09-24T10:03:42.334Z,35
2017-09-24T10:13:42.232Z,36
2017-09-24T10:23:42.239Z,35
2017-09-24T10:33:42.288Z,33
2017-09-24T10:43:43.186Z,30
2017-09-24T10:53:42.297Z,29
2017-09-24T11:03:42.301Z,28
2017-09-24T11:13:42.287Z,26
2017-09-24T11:23:42.263Z,26
2017-09-24T11:33:42.284Z,20
2017-09-24T11:43:42.264Z,19
2017-09-24T11:53:42.617Z,18
2017-09-24T12:03:42.553Z,16
2017-09-24T12:13:42.511Z,14
2017-09-24T12:23:42.302Z,9
2017-09-24T12:33:42.994Z,11
2017-09-24T12:43:42.313Z,10
2017-09-24T12:53:42.709Z,9
2017-09-24T13:03:42.289Z,8
2017-09-24T13:13:43.664Z,5
2017-09-24T13:23:43.129Z,4
2017-09-24T13:33:42.330Z,5
2017-09-24T13:43:42.332Z,5
2017-09-24T13:53:42.605Z,4
2017-09-24T14:03:42.337Z,3
2017-09-24T14:13:45.095Z,3
2017-09-24T14:23:42.260Z,3
2017-09-24T14:33:42.273Z,4
2017-09-24T14:43:42.404Z,4
2017-09-24T14:53:42.314Z,5
2017-09-24T15:03:42.334Z,5
2017-09-24T15:13:42.285Z,6
2017-09-24T15:23:42.320Z,5
2017-09-24T15:33:42.378Z,8
2017-09-24T15:43:42.315Z,7
2017-09-24T15:53:42.462Z,6
2017-09-24T16:03:42.340Z,6
2017-09-24T16:13:42.613Z,6
2017-09-24T16:23:42.319Z,6
2017-09-24T16:33:42.317Z,6
2017-09-24T16:43:42.467Z,7
2017-09-24T16:53:42.326Z,7
2017-09-24T17:03:42.276Z,8
2017-09-24T17:13:42.291Z,7
2017-09-24T17:23:42.458Z,13
2017-09-24T17:33:42.489Z,11
2017-09-24T17:43:42.426Z,12
2017-09-24T17:53:42.407Z,14
2017-09-24T18:03:42.318Z,14
2017-09-24T18:13:42.462Z,15
2017-09-24T18:23:42.378Z,17
2017-09-24T18:33:42.419Z,16
2017-09-24T18:43:42.717Z,16
2017-09-24T18:53:43.305Z,16
2017-09-24T19:03:44.517Z,16
2017-09-24T19:13:45.294Z,19
2017-09-24T19:23:43.362Z,18
2017-09-24T19:33:45.235Z,19
2017-09-24T19:43:46.108Z,22
2017-09-24T19:53:44.163Z,22
2017-09-24T20:03:43.108Z,20
2017-09-24T20:13:43.506Z,22
2017-09-24T20:23:42.530Z,25
2017-09-24T20:33:42.585Z,27
2017-09-24T20:43:42.403Z,26
2017-09-24T20:53:42.345Z,27
2017-09-24T21:03:42.688Z,30
2017-09-24T21:13:42.448Z,30
2017-09-24T21:23:42.485Z,30
2017-09-24T21:33:42.346Z,31
2017-09-24T21:43:42.460Z,29
2017-09-24T21:53:42.792Z,31
2017-09-24T22:03:42.870Z,29
2017-09-24T22:13:43.234Z,29
2017-09-24T22:23:43.121Z,27
2017-09-24T22:33:42.510Z,26
2017-09-24T22:43:42.428Z,27
2017-09-24T22:53:42.837Z,29
2017-09-24T23:03:42.447Z,25
2017-09-24T23:13:42.457Z,24
2017-09-24T23:23:43.001Z,24
2017-09-24T23:33:42.982Z,23
2017-09-24T23:43:42.990Z,24
2017-09-24T23:53:42.543Z,26
